Time;durP1;ratioP1;P1;durP2;ratioP2;P2;SDS_P1;SDS_P2;PMS_P1;PMS_P2;Temp;Humidity;BMP_temperature;BMP_pressure;BME280_temperature;BME280_humidity;BME280_pressure;Samples;Min_cycle;Max_cycle;Signal;HPM_P1;HPM_P2
2020/03/17 00:01:54;;;;;;;13.5;8.7;;;;;;;8.11;77.36035;967.2942;;;;
2020/03/17 00:04:19;;;;;;;11.4;8.5;;;;;;;8.08;78.29199;967.2928;;;;
2020/03/17 00:06:44;;;;;;;12;8.3;;;;;;;8.07;78.32422;967.3418;;;;
2020/03/17 00:09:10;;;;;;;10.4;7;;;;;;;8.14;77.15918;967.3311;;;;
2020/03/17 00:11:35;;;;;;;10.8;7.7;;;;;;;8.2;77.61523;967.3627;;;;
2020/03/17 00:14:00;;;;;;;10.1;7.3;;;;;;;8.21;77.61816;967.3436;;;;
2020/03/17 00:16:25;;;;;;;9.5;7;;;;;;;8.14;77.68555;967.3855;;;;
2020/03/17 00:18:51;;;;;;;10.3;7.6;;;;;;;8.13;77.96973;967.3742;;;;
2020/03/17 00:21:16;;;;;;;8.9;7.1;;;;;;;8.13;78.01563;967.3174;;;;
2020/03/17 00:23:41;;;;;;;9.9;6.8;;;;;;;8.16;77.28809;967.386;;;;
2020/03/17 00:26:06;;;;;;;8.7;7.3;;;;;;;8.2;77.24902;967.3301;;;;
2020/03/17 00:28:32;;;;;;;8.9;6.9;;;;;;;8.25;77.29297;967.3499;;;;
2020/03/17 00:30:57;;;;;;;8.1;6.6;;;;;;;8.2;77.79785;967.3862;;;;
2020/03/17 00:33:22;;;;;;;9.4;6.8;;;;;;;8.26;77.47852;967.4351;;;;
2020/03/17 00:35:48;;;;;;;9.2;6.9;;;;;;;8.27;77.70801;967.3986;;;;
2020/03/17 00:38:13;;;;;;;8.2;6.6;;;;;;;8.31;77.22363;967.4084;;;;
2020/03/17 00:43:04;;;;;;;9.9;7.6;;;;;;;8.28;77.60645;967.3649;;;;
2020/03/17 00:45:34;;;;;;;10.4;7.9;;;;;;;8.27;78.57813;967.3289;;;;
2020/03/17 00:47:53;;;;;;;12.3;8.9;;;;;;;8.35;77.72363;967.3641;;;;
2020/03/17 00:50:18;;;;;;;13.3;9.3;;;;;;;8.17;78.9834;967.3697;;;;
2020/03/17 00:52:43;;;;;;;11.1;8.8;;;;;;;8.14;79.53906;967.3457;;;;
2020/03/17 00:55:08;;;;;;;15.7;10.1;;;;;;;8.18;79.19141;967.3528;;;;
2020/03/17 00:57:34;;;;;;;13.3;10;;;;;;;8.31;78.23145;967.4303;;;;
2020/03/17 00:59:59;;;;;;;15.5;10.1;;;;;;;8.41;77.83691;967.421;;;;
2020/03/17 01:02:24;;;;;;;13.4;10.1;;;;;;;8.36;77.87305;967.4283;;;;
2020/03/17 01:04:49;;;;;;;15;10.4;;;;;;;8.34;78.45508;967.3739;;;;
2020/03/17 01:07:15;;;;;;;14.3;10.6;;;;;;;8.3;78.41309;967.3814;;;;
2020/03/17 01:09:40;;;;;;;14.7;9.7;;;;;;;8.35;78.21484;967.3405;;;;
2020/03/17 01:12:05;;;;;;;13.1;10.1;;;;;;;8.18;79.69629;967.3448;;;;
2020/03/17 01:14:31;;;;;;;13.9;10.2;;;;;;;8.14;79.95117;967.3725;;;;
2020/03/17 01:16:56;;;;;;;14.3;9.9;;;;;;;8.27;79.07031;967.4045;;;;
2020/03/17 01:19:21;;;;;;;11.7;9.8;;;;;;;8.34;77.87012;967.39;;;;
2020/03/17 01:21:46;;;;;;;11.4;9.1;;;;;;;8.34;78.37305;967.3948;;;;
2020/03/17 01:24:11;;;;;;;11.4;8.9;;;;;;;8.26;77.62793;967.4131;;;;
2020/03/17 01:26:36;;;;;;;11.8;8.7;;;;;;;8.28;78.11035;967.4055;;;;
2020/03/17 01:29:01;;;;;;;10.2;8.3;;;;;;;8.37;77.29102;967.4326;;;;
2020/03/17 01:31:26;;;;;;;13;8.8;;;;;;;8.41;76.94336;967.4528;;;;
2020/03/17 01:33:52;;;;;;;10.6;8.5;;;;;;;8.45;76.44727;967.4583;;;;
2020/03/17 01:36:17;;;;;;;9.8;8.3;;;;;;;8.44;76.45605;967.4506;;;;
2020/03/17 01:38:43;;;;;;;11.8;9;;;;;;;8.31;76.38672;967.4521;;;;
2020/03/17 01:41:09;;;;;;;11.6;8.8;;;;;;;8.1;76.83203;967.4478;;;;
2020/03/17 01:43:34;;;;;;;12.7;8.8;;;;;;;8.01;77.54785;967.4726;;;;
2020/03/17 01:45:59;;;;;;;10.4;9.1;;;;;;;7.98;77.39258;967.5061;;;;
2020/03/17 01:48:25;;;;;;;11.9;8.5;;;;;;;7.93;77.76074;967.4761;;;;
2020/03/17 01:50:50;;;;;;;10.9;9.3;;;;;;;7.93;77.70313;967.5367;;;;
2020/03/17 01:53:16;;;;;;;10.6;8.9;;;;;;;7.97;77.79199;967.5276;;;;
2020/03/17 01:55:41;;;;;;;10.3;8.3;;;;;;;7.99;77.50879;967.5441;;;;
2020/03/17 01:58:06;;;;;;;11.5;9.2;;;;;;;8.04;77.05957;967.5238;;;;
2020/03/17 02:00:31;;;;;;;11.6;8.8;;;;;;;8.11;76.73047;967.5247;;;;
2020/03/17 02:02:56;;;;;;;13.5;9.2;;;;;;;8.06;77.03027;967.5053;;;;
2020/03/17 02:05:22;;;;;;;10.7;8.7;;;;;;;8.06;76.97266;967.5695;;;;
2020/03/17 02:07:47;;;;;;;12.2;8.9;;;;;;;8.03;76.89941;967.6381;;;;
2020/03/17 02:10:12;;;;;;;11.2;8.9;;;;;;;8.01;76.7002;967.6599;;;;
2020/03/17 02:12:37;;;;;;;10.7;8.9;;;;;;;8.03;76.71582;967.69;;;;
2020/03/17 02:15:02;;;;;;;10.8;8.9;;;;;;;8.09;76.40527;967.7185;;;;
2020/03/17 02:17:27;;;;;;;11.5;8.9;;;;;;;8.02;76.69141;967.676;;;;
2020/03/17 02:19:53;;;;;;;13.2;8.7;;;;;;;7.91;77.04688;967.6945;;;;
2020/03/17 02:22:19;;;;;;;11.1;9;;;;;;;7.94;77.32813;967.7023;;;;
2020/03/17 02:24:44;;;;;;;12.2;8.5;;;;;;;7.95;77.06641;967.753;;;;
2020/03/17 02:27:09;;;;;;;11.4;8.4;;;;;;;8;77.24707;967.7472;;;;
2020/03/17 02:29:34;;;;;;;9.2;7.9;;;;;;;8.09;76.59961;967.7136;;;;
2020/03/17 02:31:59;;;;;;;10.2;7.9;;;;;;;8.15;76.4834;967.7679;;;;
2020/03/17 02:34:25;;;;;;;9.6;8;;;;;;;8.07;77.0791;967.6869;;;;
2020/03/17 02:36:50;;;;;;;9.5;7.8;;;;;;;8.08;76.90918;967.7419;;;;
2020/03/17 02:39:15;;;;;;;11.1;8.4;;;;;;;8.03;76.81934;967.7192;;;;
2020/03/17 02:41:41;;;;;;;10.6;7.8;;;;;;;8.07;76.69922;967.738;;;;
2020/03/17 02:44:06;;;;;;;9.2;8;;;;;;;8.07;76.83691;967.7672;;;;
2020/03/17 02:46:31;;;;;;;10.8;8;;;;;;;8.14;76.55176;967.728;;;;
2020/03/17 02:48:57;;;;;;;9.7;7.8;;;;;;;8.28;76.40625;967.793;;;;
2020/03/17 02:51:22;;;;;;;9.8;7.6;;;;;;;8.34;76.09668;967.8506;;;;
2020/03/17 02:53:47;;;;;;;9.7;7.8;;;;;;;8.42;76.03027;967.8997;;;;
2020/03/17 02:56:13;;;;;;;10;7.6;;;;;;;8.43;75.75586;967.8787;;;;
2020/03/17 02:58:38;;;;;;;11.1;7.8;;;;;;;8.39;75.45215;967.9716;;;;
2020/03/17 03:01:03;;;;;;;11.7;7.8;;;;;;;8.42;75.33203;967.9835;;;;
2020/03/17 03:03:29;;;;;;;11;7.7;;;;;;;8.48;74.88184;968.0019;;;;
2020/03/17 03:05:54;;;;;;;10.8;8.5;;;;;;;8.52;75.08398;967.9588;;;;
2020/03/17 03:08:19;;;;;;;9.6;7.5;;;;;;;8.58;75.62207;967.967;;;;
2020/03/17 03:10:44;;;;;;;10.8;8;;;;;;;8.62;75.11328;967.9744;;;;
2020/03/17 03:13:09;;;;;;;11.3;7.7;;;;;;;8.71;75.11719;968.0016;;;;
2020/03/17 03:15:34;;;;;;;10.3;8.2;;;;;;;8.74;75.26074;968.05;;;;
2020/03/17 03:18:00;;;;;;;10.4;8.1;;;;;;;8.75;75.43457;968.1105;;;;
2020/03/17 03:20:25;;;;;;;10.2;7.7;;;;;;;8.73;75.23633;968.1362;;;;
2020/03/17 03:22:50;;;;;;;9.1;7.9;;;;;;;8.72;75.45215;968.1783;;;;
2020/03/17 03:25:15;;;;;;;9.6;8.4;;;;;;;8.81;75.27344;968.2411;;;;
2020/03/17 03:27:40;;;;;;;10.8;7.9;;;;;;;8.84;74.80859;968.2659;;;;
2020/03/17 03:30:06;;;;;;;11.5;8.2;;;;;;;8.8;76.04004;968.3329;;;;
2020/03/17 03:32:31;;;;;;;8.9;7.7;;;;;;;8.9;74.58789;968.3683;;;;
2020/03/17 03:34:56;;;;;;;9.1;7.7;;;;;;;8.87;74.97461;968.364;;;;
2020/03/17 03:37:21;;;;;;;9.6;8.1;;;;;;;8.84;75.39258;968.4392;;;;
2020/03/17 03:39:47;;;;;;;8.6;7.4;;;;;;;8.85;74.98145;968.3963;;;;
2020/03/17 03:42:12;;;;;;;10.9;8;;;;;;;8.91;75.38281;968.4191;;;;
2020/03/17 03:44:37;;;;;;;9.2;8;;;;;;;8.97;73.60254;968.4001;;;;
2020/03/17 03:47:03;;;;;;;10.7;8;;;;;;;8.89;74.22168;968.4256;;;;
2020/03/17 03:49:28;;;;;;;9.8;7.8;;;;;;;8.92;74.76465;968.47;;;;
2020/03/17 03:51:53;;;;;;;9.3;7.9;;;;;;;8.9;74.31445;968.4684;;;;
2020/03/17 03:54:18;;;;;;;9.4;8.1;;;;;;;8.87;74.24121;968.5151;;;;
2020/03/17 03:56:43;;;;;;;9.3;8.1;;;;;;;8.88;73.75977;968.5438;;;;
2020/03/17 03:59:08;;;;;;;13.3;8.5;;;;;;;8.92;73.30859;968.5781;;;;
